sensor_id;sensor_type;location;lat;lon;timestamp;pressure;altitude;pressure_sealevel;temperature;humidity
37764;BME280;23602;51.084;7.090;2023-03-01T00:02:03;101462.28;;;-3.32;100.00
37764;BME280;23602;51.084;7.090;2023-03-01T00:04:30;101462.28;;;-3.32;100.00
37764;BME280;23602;51.084;7.090;2023-03-01T00:06:55;101455.13;;;-3.30;100.00
37764;BME280;23602;51.084;7.090;2023-03-01T00:09:21;101458.72;;;-3.31;100.00
37764;BME280;23602;51.084;7.090;2023-03-01T00:11:46;101455.31;;;-3.33;100.00
37764;BME280;23602;51.084;7.090;2023-03-01T00:14:12;101453.47;;;-3.31;100.00
37764;BME280;23602;51.084;7.090;2023-03-01T00:16:41;101450.25;;;-3.36;100.00
37764;BME280;23602;51.084;7.090;2023-03-01T00:19:08;101452.97;;;-3.37;100.00
37764;BME280;23602;51.084;7.090;2023-03-01T00:21:35;101447.06;;;-3.41;100.00
37764;BME280;23602;51.084;7.090;2023-03-01T00:24:01;101443.56;;;-3.41;100.00
37764;BME280;23602;51.084;7.090;2023-03-01T00:26:26;101447.13;;;-3.42;100.00
37764;BME280;23602;51.084;7.090;2023-03-01T00:28:52;101442.72;;;-3.42;100.00
37764;BME280;23602;51.084;7.090;2023-03-01T00:31:22;101443.06;;;-3.48;100.00
37764;BME280;23602;51.084;7.090;2023-03-01T00:33:50;101438.94;;;-3.52;100.00
37764;BME280;23602;51.084;7.090;2023-03-01T00:36:17;101452.25;;;-3.55;100.00
37764;BME280;23602;51.084;7.090;2023-03-01T00:38:43;101446.81;;;-3.52;100.00
37764;BME280;23602;51.084;7.090;2023-03-01T00:41:09;101444.47;;;-3.56;100.00
37764;BME280;23602;51.084;7.090;2023-03-01T00:43:35;101438.94;;;-3.52;100.00
37764;BME280;23602;51.084;7.090;2023-03-01T00:46:04;101436.59;;;-3.56;100.00
37764;BME280;23602;51.084;7.090;2023-03-01T00:48:29;101433.00;;;-3.55;100.00
37764;BME280;23602;51.084;7.090;2023-03-01T00:50:55;101429.78;;;-3.60;100.00
37764;BME280;23602;51.084;7.090;2023-03-01T00:53:20;101434.28;;;-3.62;100.00
37764;BME280;23602;51.084;7.090;2023-03-01T00:55:47;101428.88;;;-3.59;100.00
37764;BME280;23602;51.084;7.090;2023-03-01T00:58:14;101428.19;;;-3.63;100.00
37764;BME280;23602;51.084;7.090;2023-03-01T01:00:40;101428.94;;;-3.61;100.00
37764;BME280;23602;51.084;7.090;2023-03-01T01:03:05;101422.00;;;-3.62;100.00
37764;BME280;23602;51.084;7.090;2023-03-01T01:05:31;101423.69;;;-3.61;100.00
37764;BME280;23602;51.084;7.090;2023-03-01T01:07:59;101419.28;;;-3.60;100.00
37764;BME280;23602;51.084;7.090;2023-03-01T01:10:24;101420.41;;;-3.64;100.00
37764;BME280;23602;51.084;7.090;2023-03-01T01:12:49;101416.81;;;-3.63;100.00
37764;BME280;23602;51.084;7.090;2023-03-01T01:15:15;101420.31;;;-3.63;100.00
37764;BME280;23602;51.084;7.090;2023-03-01T01:17:41;101418.53;;;-3.62;100.00
37764;BME280;23602;51.084;7.090;2023-03-01T01:20:07;101413.44;;;-3.65;100.00
37764;BME280;23602;51.084;7.090;2023-03-01T01:22:32;101408.13;;;-3.64;100.00
37764;BME280;23602;51.084;7.090;2023-03-01T01:24:58;101397.03;;;-3.69;100.00
37764;BME280;23602;51.084;7.090;2023-03-01T01:27:23;101391.22;;;-3.74;100.00
37764;BME280;23602;51.084;7.090;2023-03-01T01:29:49;101397.72;;;-3.81;100.00
37764;BME280;23602;51.084;7.090;2023-03-01T01:32:16;101390.63;;;-3.79;100.00
37764;BME280;23602;51.084;7.090;2023-03-01T01:34:42;101384.69;;;-3.83;100.00
37764;BME280;23602;51.084;7.090;2023-03-01T01:37:07;101369.84;;;-3.84;100.00
37764;BME280;23602;51.084;7.090;2023-03-01T01:39:34;101379.53;;;-3.84;100.00
37764;BME280;23602;51.084;7.090;2023-03-01T01:42:00;101379.34;;;-3.81;100.00
37764;BME280;23602;51.084;7.090;2023-03-01T01:44:26;101374.34;;;-3.86;100.00
37764;BME280;23602;51.084;7.090;2023-03-01T01:51:56;101375.66;;;-3.93;100.00
37764;BME280;23602;51.084;7.090;2023-03-01T01:54:24;101366.91;;;-3.93;100.00
37764;BME280;23602;51.084;7.090;2023-03-01T01:57:01;101358.03;;;-3.91;100.00
37764;BME280;23602;51.084;7.090;2023-03-01T01:59:28;101359.78;;;-3.91;100.00
37764;BME280;23602;51.084;7.090;2023-03-01T02:01:55;101356.25;;;-3.90;100.00
37764;BME280;23602;51.084;7.090;2023-03-01T02:04:22;101353.78;;;-3.93;100.00
37764;BME280;23602;51.084;7.090;2023-03-01T02:09:34;101343.47;;;-3.96;100.00
37764;BME280;23602;51.084;7.090;2023-03-01T02:12:01;101345.16;;;-3.95;100.00
37764;BME280;23602;51.084;7.090;2023-03-01T02:14:27;101353.75;;;-4.07;100.00
37764;BME280;23602;51.084;7.090;2023-03-01T02:16:52;101359.44;;;-4.15;100.00
37764;BME280;23602;51.084;7.090;2023-03-01T02:19:22;101360.47;;;-4.17;100.00
37764;BME280;23602;51.084;7.090;2023-03-01T02:22:03;101364.50;;;-4.12;100.00
37764;BME280;23602;51.084;7.090;2023-03-01T02:24:34;101356.28;;;-4.06;100.00
37764;BME280;23602;51.084;7.090;2023-03-01T02:27:01;101366.88;;;-4.07;100.00
37764;BME280;23602;51.084;7.090;2023-03-01T02:29:26;101362.66;;;-4.10;100.00
37764;BME280;23602;51.084;7.090;2023-03-01T02:31:52;101360.84;;;-4.09;100.00
37764;BME280;23602;51.084;7.090;2023-03-01T02:34:22;101348.75;;;-4.12;100.00
37764;BME280;23602;51.084;7.090;2023-03-01T02:37:03;101357.47;;;-4.11;100.00
37764;BME280;23602;51.084;7.090;2023-03-01T02:39:31;101362.53;;;-4.08;100.00
37764;BME280;23602;51.084;7.090;2023-03-01T02:41:57;101359.16;;;-4.10;100.00
37764;BME280;23602;51.084;7.090;2023-03-01T02:44:23;101370.75;;;-4.14;100.00
37764;BME280;23602;51.084;7.090;2023-03-01T02:46:50;101361.22;;;-4.15;100.00
37764;BME280;23602;51.084;7.090;2023-03-01T02:49:18;101356.97;;;-4.18;100.00
37764;BME280;23602;51.084;7.090;2023-03-01T02:54:17;101353.84;;;-4.24;100.00
37764;BME280;23602;51.084;7.090;2023-03-01T02:56:47;101351.47;;;-4.29;100.00
37764;BME280;23602;51.084;7.090;2023-03-01T02:59:14;101346.31;;;-4.30;100.00
37764;BME280;23602;51.084;7.090;2023-03-01T03:01:41;101348.00;;;-4.29;100.00
37764;BME280;23602;51.084;7.090;2023-03-01T03:04:07;101345.47;;;-4.31;100.00
37764;BME280;23602;51.084;7.090;2023-03-01T03:06:33;101340.13;;;-4.29;100.00
37764;BME280;23602;51.084;7.090;2023-03-01T03:08:59;101335.84;;;-4.30;100.00
37764;BME280;23602;51.084;7.090;2023-03-01T03:11:24;101341.09;;;-4.30;100.00
37764;BME280;23602;51.084;7.090;2023-03-01T03:13:49;101338.28;;;-4.27;100.00
37764;BME280;23602;51.084;7.090;2023-03-01T03:16:15;101319.13;;;-4.29;100.00
37764;BME280;23602;51.084;7.090;2023-03-01T03:18:40;101337.50;;;-4.29;100.00
37764;BME280;23602;51.084;7.090;2023-03-01T03:21:09;101332.25;;;-4.29;100.00
37764;BME280;23602;51.084;7.090;2023-03-01T03:23:36;101335.84;;;-4.30;100.00
37764;BME280;23602;51.084;7.090;2023-03-01T03:26:02;101330.75;;;-4.33;100.00
37764;BME280;23602;51.084;7.090;2023-03-01T03:28:29;101326.41;;;-4.34;100.00
37764;BME280;23602;51.084;7.090;2023-03-01T03:30:55;101329.03;;;-4.34;100.00
37764;BME280;23602;51.084;7.090;2023-03-01T03:33:20;101324.66;;;-4.34;100.00
37764;BME280;23602;51.084;7.090;2023-03-01T03:35:49;101319.56;;;-4.37;100.00
37764;BME280;23602;51.084;7.090;2023-03-01T03:38:15;101325.50;;;-4.33;100.00
37764;BME280;23602;51.084;7.090;2023-03-01T03:40:45;101324.59;;;-4.32;100.00
37764;BME280;23602;51.084;7.090;2023-03-01T03:43:12;101328.13;;;-4.33;100.00
37764;BME280;23602;51.084;7.090;2023-03-01T03:45:38;101326.41;;;-4.34;100.00
37764;BME280;23602;51.084;7.090;2023-03-01T03:48:04;101324.66;;;-4.34;100.00
37764;BME280;23602;51.084;7.090;2023-03-01T03:50:29;101329.16;;;-4.36;100.00
37764;BME280;23602;51.084;7.090;2023-03-01T03:52:55;101325.84;;;-4.39;100.00
37764;BME280;23602;51.084;7.090;2023-03-01T03:55:20;101320.69;;;-4.41;100.00
37764;BME280;23602;51.084;7.090;2023-03-01T03:57:46;101324.91;;;-4.38;100.00
37764;BME280;23602;51.084;7.090;2023-03-01T04:00:20;101308.75;;;-4.47;100.00
37764;BME280;23602;51.084;7.090;2023-03-01T04:02:49;101320.41;;;-4.36;100.00
37764;BME280;23602;51.084;7.090;2023-03-01T04:05:15;101311.81;;;-4.38;100.00
37764;BME280;23602;51.084;7.090;2023-03-01T04:07:41;101308.25;;;-4.37;100.00
37764;BME280;23602;51.084;7.090;2023-03-01T04:10:08;101306.38;;;-4.35;100.00
37764;BME280;23602;51.084;7.090;2023-03-01T04:12:34;101304.69;;;-4.36;100.00
37764;BME280;23602;51.084;7.090;2023-03-01T04:15:03;101305.44;;;-4.34;100.00
37764;BME280;23602;51.084;7.090;2023-03-01T04:17:42;101308.66;;;-4.29;100.00
37764;BME280;23602;51.084;7.090;2023-03-01T04:20:08;101308.47;;;-4.26;100.00
37764;BME280;23602;51.084;7.090;2023-03-01T04:22:34;101303.97;;;-4.24;100.00
37764;BME280;23602;51.084;7.090;2023-03-01T04:25:00;101297.81;;;-4.23;100.00
37764;BME280;23602;51.084;7.090;2023-03-01T04:27:32;101302.13;;;-4.22;100.00
37764;BME280;23602;51.084;7.090;2023-03-01T04:29:57;101302.13;;;-4.22;100.00
37764;BME280;23602;51.084;7.090;2023-03-01T04:32:23;101302.97;;;-4.22;100.00
37764;BME280;23602;51.084;7.090;2023-03-01T04:34:48;101308.22;;;-4.22;100.00
37764;BME280;23602;51.084;7.090;2023-03-01T04:37:17;101305.69;;;-4.23;100.00
37764;BME280;23602;51.084;7.090;2023-03-01T04:39:42;101302.88;;;-4.20;100.00
37764;BME280;23602;51.084;7.090;2023-03-01T04:42:12;101312.19;;;-4.15;100.00
37764;BME280;23602;51.084;7.090;2023-03-01T04:44:38;101303.09;;;-4.09;100.00
37764;BME280;23602;51.084;7.090;2023-03-01T04:47:03;101310.06;;;-4.08;100.00
37764;BME280;23602;51.084;7.090;2023-03-01T04:49:28;101302.94;;;-4.06;100.00
37764;BME280;23602;51.084;7.090;2023-03-01T04:51:54;101296.41;;;-3.99;100.00
37764;BME280;23602;51.084;7.090;2023-03-01T04:54:19;101300.53;;;-3.95;100.00
37764;BME280;23602;51.084;7.090;2023-03-01T04:56:44;101295.13;;;-3.92;100.00
37764;BME280;23602;51.084;7.090;2023-03-01T04:59:10;101291.00;;;-3.82;100.00
37764;BME280;23602;51.084;7.090;2023-03-01T05:01:37;101293.72;;;-3.84;100.00
37764;BME280;23602;51.084;7.090;2023-03-01T05:04:03;101292.22;;;-3.88;100.00
37764;BME280;23602;51.084;7.090;2023-03-01T05:06:30;101288.84;;;-3.90;100.00
37764;BME280;23602;51.084;7.090;2023-03-01T05:08:56;101292.22;;;-3.88;100.00
37764;BME280;23602;51.084;7.090;2023-03-01T05:11:21;101291.19;;;-3.85;100.00
37764;BME280;23602;51.084;7.090;2023-03-01T05:13:46;101291.19;;;-3.85;100.00
37764;BME280;23602;51.084;7.090;2023-03-01T05:16:12;101285.75;;;-3.82;100.00
37764;BME280;23602;51.084;7.090;2023-03-01T05:18:38;101289.13;;;-3.80;100.00
37764;BME280;23602;51.084;7.090;2023-03-01T05:21:07;101288.84;;;-3.75;100.00
37764;BME280;23602;51.084;7.090;2023-03-01T05:23:33;101287.94;;;-3.74;100.00
37764;BME280;23602;51.084;7.090;2023-03-01T05:25:59;101286.41;;;-3.78;100.00
37764;BME280;23602;51.084;7.090;2023-03-01T05:28:25;101291.19;;;-3.71;100.00
37764;BME280;23602;51.084;7.090;2023-03-01T05:30:50;101282.97;;;-3.79;100.00
37764;BME280;23602;51.084;7.090;2023-03-01T05:33:16;101285.19;;;-3.73;100.00
37764;BME280;23602;51.084;7.090;2023-03-01T05:35:42;101270.84;;;-3.81;100.00
37764;BME280;23602;51.084;7.090;2023-03-01T05:38:08;101280.44;;;-3.66;100.00
37764;BME280;23602;51.084;7.090;2023-03-01T05:40:34;101281.38;;;-3.67;100.00
37764;BME280;23602;51.084;7.090;2023-03-01T05:42:59;101277.25;;;-3.71;100.00
37764;BME280;23602;51.084;7.090;2023-03-01T05:45:25;101283.53;;;-3.74;100.00
37764;BME280;23602;51.084;7.090;2023-03-01T05:47:51;101276.41;;;-3.72;100.00
37764;BME280;23602;51.084;7.090;2023-03-01T05:50:21;101282.69;;;-3.74;100.00
37764;BME280;23602;51.084;7.090;2023-03-01T05:52:51;101268.81;;;-3.76;100.00
37764;BME280;23602;51.084;7.090;2023-03-01T05:55:18;101276.75;;;-3.78;100.00
37764;BME280;23602;51.084;7.090;2023-03-01T05:57:43;101274.50;;;-3.84;100.00
37764;BME280;23602;51.084;7.090;2023-03-01T06:00:09;101270.47;;;-3.90;100.00
37764;BME280;23602;51.084;7.090;2023-03-01T06:02:35;101277.50;;;-3.90;100.00
37764;BME280;23602;51.084;7.090;2023-03-01T06:05:00;101272.69;;;-3.98;100.00
37764;BME280;23602;51.084;7.090;2023-03-01T06:07:27;101266.94;;;-4.04;100.00
37764;BME280;23602;51.084;7.090;2023-03-01T06:09:52;101270.41;;;-4.04;100.00
37764;BME280;23602;51.084;7.090;2023-03-01T06:12:20;101267.78;;;-4.04;100.00
37764;BME280;23602;51.084;7.090;2023-03-01T06:14:46;101266.34;;;-4.09;100.00
37764;BME280;23602;51.084;7.090;2023-03-01T06:17:12;101265.03;;;-4.16;100.00
37764;BME280;23602;51.084;7.090;2023-03-01T06:19:37;101270.84;;;-4.11;100.00
37764;BME280;23602;51.084;7.090;2023-03-01T06:22:03;101276.84;;;-4.09;100.00
37764;BME280;23602;51.084;7.090;2023-03-01T06:24:28;101282.31;;;-4.12;100.00
37764;BME280;23602;51.084;7.090;2023-03-01T06:26:54;101279.41;;;-4.08;100.00
37764;BME280;23602;51.084;7.090;2023-03-01T06:29:19;101277.53;;;-4.06;100.00
37764;BME280;23602;51.084;7.090;2023-03-01T06:31:47;101282.50;;;-4.01;100.00
37764;BME280;23602;51.084;7.090;2023-03-01T06:34:12;101271.09;;;-4.00;100.00
37764;BME280;23602;51.084;7.090;2023-03-01T06:36:38;101275.03;;;-3.93;100.00
37764;BME280;23602;51.084;7.090;2023-03-01T06:39:04;101282.56;;;-3.87;100.00
37764;BME280;23602;51.084;7.090;2023-03-01T06:41:30;101282.00;;;-3.78;100.00
37764;BME280;23602;51.084;7.090;2023-03-01T06:43:55;101283.59;;;-3.75;100.00
37764;BME280;23602;51.084;7.090;2023-03-01T06:46:21;101275.28;;;-3.68;100.00
37764;BME280;23602;51.084;7.090;2023-03-01T06:48:47;101273.13;;;-3.61;100.00
37764;BME280;23602;51.084;7.090;2023-03-01T06:51:12;101271.91;;;-3.56;100.00
37764;BME280;23602;51.084;7.090;2023-03-01T06:53:37;101264.59;;;-3.51;100.00
37764;BME280;23602;51.084;7.090;2023-03-01T06:56:03;101257.56;;;-3.50;100.00
37764;BME280;23602;51.084;7.090;2023-03-01T06:58:28;101256.34;;;-3.45;100.00
37764;BME280;23602;51.084;7.090;2023-03-01T07:00:54;101255.41;;;-3.44;100.00
37764;BME280;23602;51.084;7.090;2023-03-01T07:03:19;101253.53;;;-3.42;100.00
37764;BME280;23602;51.084;7.090;2023-03-01T07:05:44;101248.94;;;-3.38;100.00
37764;BME280;23602;51.084;7.090;2023-03-01T07:08:10;101257.56;;;-3.36;100.00
37764;BME280;23602;51.084;7.090;2023-03-01T07:10:35;101246.88;;;-3.33;100.00
37764;BME280;23602;51.084;7.090;2023-03-01T07:13:01;101248.66;;;-3.34;100.00
37764;BME280;23602;51.084;7.090;2023-03-01T07:15:26;101245.19;;;-3.34;100.00
37764;BME280;23602;51.084;7.090;2023-03-01T07:17:52;101243.97;;;-3.29;100.00
37764;BME280;23602;51.084;7.090;2023-03-01T07:20:17;101240.94;;;-3.23;100.00
37764;BME280;23602;51.084;7.090;2023-03-01T07:22:43;101235.00;;;-3.12;100.00
37764;BME280;23602;51.084;7.090;2023-03-01T07:25:09;101233.97;;;-3.09;100.00
37764;BME280;23602;51.084;7.090;2023-03-01T07:27:34;101239.06;;;-3.06;100.00
37764;BME280;23602;51.084;7.090;2023-03-01T07:30:00;101241.56;;;-3.05;100.00
37764;BME280;23602;51.084;7.090;2023-03-01T07:32:25;101237.16;;;-3.04;100.00
37764;BME280;23602;51.084;7.090;2023-03-01T07:34:51;101241.75;;;-2.94;100.00
37764;BME280;23602;51.084;7.090;2023-03-01T07:37:16;101227.31;;;-2.74;100.00
37764;BME280;23602;51.084;7.090;2023-03-01T07:39:42;101224.19;;;-2.67;100.00
37764;BME280;23602;51.084;7.090;2023-03-01T07:42:07;101231.50;;;-2.58;100.00
37764;BME280;23602;51.084;7.090;2023-03-01T07:44:36;101220.47;;;-2.50;100.00
37764;BME280;23602;51.084;7.090;2023-03-01T07:47:02;101229.66;;;-2.43;100.00
37764;BME280;23602;51.084;7.090;2023-03-01T07:49:27;101220.91;;;-2.04;100.00
37764;BME280;23602;51.084;7.090;2023-03-01T07:51:59;101218.16;;;-2.03;100.00
37764;BME280;23602;51.084;7.090;2023-03-01T07:54:28;101211.84;;;-1.87;100.00
37764;BME280;23602;51.084;7.090;2023-03-01T07:56:54;101206.19;;;-1.81;100.00
37764;BME280;23602;51.084;7.090;2023-03-01T07:59:19;101205.66;;;-1.61;100.00
37764;BME280;23602;51.084;7.090;2023-03-01T08:01:45;101199.84;;;-1.66;100.00
37764;BME280;23602;51.084;7.090;2023-03-01T08:04:11;101202.09;;;-1.60;100.00
37764;BME280;23602;51.084;7.090;2023-03-01T08:06:36;101196.16;;;-1.51;100.00
37764;BME280;23602;51.084;7.090;2023-03-01T08:09:02;101195.75;;;-1.45;100.00
37764;BME280;23602;51.084;7.090;2023-03-01T08:11:27;101198.25;;;-1.31;100.00
37764;BME280;23602;51.084;7.090;2023-03-01T08:13:53;101200.44;;;-1.25;100.00
37764;BME280;23602;51.084;7.090;2023-03-01T08:16:19;101194.63;;;-1.17;100.00
37764;BME280;23602;51.084;7.090;2023-03-01T08:18:49;101184.06;;;-1.05;100.00
37764;BME280;23602;51.084;7.090;2023-03-01T08:24:14;101179.66;;;-0.93;100.00
37764;BME280;23602;51.084;7.090;2023-03-01T08:26:48;101175.81;;;-0.77;100.00
37764;BME280;23602;51.084;7.090;2023-03-01T08:29:23;101178.13;;;-0.48;100.00
37764;BME280;23602;51.084;7.090;2023-03-01T08:32:12;101183.63;;;-0.51;100.00
37764;BME280;23602;51.084;7.090;2023-03-01T08:34:51;101182.19;;;-0.44;100.00
37764;BME280;23602;51.084;7.090;2023-03-01T08:37:25;101186.75;;;-0.46;100.00
37764;BME280;23602;51.084;7.090;2023-03-01T08:42:26;101183.81;;;-0.31;100.00
37764;BME280;23602;51.084;7.090;2023-03-01T08:44:55;101189.16;;;-0.09;100.00
37764;BME280;23602;51.084;7.090;2023-03-01T08:50:31;101188.66;;;0.32;100.00
37764;BME280;23602;51.084;7.090;2023-03-01T08:52:56;101181.94;;;0.50;100.00
37764;BME280;23602;51.084;7.090;2023-03-01T08:55:21;101184.31;;;0.53;100.00
37764;BME280;23602;51.084;7.090;2023-03-01T08:57:47;101188.41;;;0.69;100.00
37764;BME280;23602;51.084;7.090;2023-03-01T09:00:15;101189.63;;;0.76;100.00
37764;BME280;23602;51.084;7.090;2023-03-01T09:02:42;101178.75;;;0.90;100.00
37764;BME280;23602;51.084;7.090;2023-03-01T09:05:08;101175.97;;;1.02;100.00
37764;BME280;23602;51.084;7.090;2023-03-01T09:07:33;101175.25;;;1.11;100.00
37764;BME280;23602;51.084;7.090;2023-03-01T09:09:58;101187.34;;;1.25;100.00
37764;BME280;23602;51.084;7.090;2023-03-01T09:12:24;101180.56;;;1.43;100.00
37764;BME280;23602;51.084;7.090;2023-03-01T09:14:50;101173.06;;;1.48;100.00
37764;BME280;23602;51.084;7.090;2023-03-01T09:17:15;101178.19;;;1.61;100.00
37764;BME280;23602;51.084;7.090;2023-03-01T09:19:40;101170.81;;;1.75;100.00
37764;BME280;23602;51.084;7.090;2023-03-01T09:22:06;101157.97;;;2.01;100.00
37764;BME280;23602;51.084;7.090;2023-03-01T09:24:31;101157.75;;;2.34;100.00
37764;BME280;23602;51.084;7.090;2023-03-01T09:26:59;101151.06;;;2.70;100.00
37764;BME280;23602;51.084;7.090;2023-03-01T09:29:24;101154.38;;;2.63;100.00
37764;BME280;23602;51.084;7.090;2023-03-01T09:31:50;101149.47;;;2.98;100.00
37764;BME280;23602;51.084;7.090;2023-03-01T09:34:16;101150.03;;;2.92;100.00
37764;BME280;23602;51.084;7.090;2023-03-01T09:36:46;101142.78;;;3.03;100.00
37764;BME280;23602;51.084;7.090;2023-03-01T09:39:12;101140.81;;;3.05;100.00
37764;BME280;23602;51.084;7.090;2023-03-01T09:41:45;101133.00;;;3.13;100.00
37764;BME280;23602;51.084;7.090;2023-03-01T09:46:56;101138.91;;;3.65;100.00
37764;BME280;23602;51.084;7.090;2023-03-01T09:49:23;101127.81;;;3.98;100.00
37764;BME280;23602;51.084;7.090;2023-03-01T09:51:59;101120.41;;;4.38;100.00
37764;BME280;23602;51.084;7.090;2023-03-01T09:54:28;101120.63;;;4.82;91.03
37764;BME280;23602;51.084;7.090;2023-03-01T09:57:18;101120.59;;;5.27;85.14
37764;BME280;23602;51.084;7.090;2023-03-01T10:02:31;101114.44;;;4.81;74.49
37764;BME280;23602;51.084;7.090;2023-03-01T10:05:47;101125.97;;;4.99;75.79
37764;BME280;23602;51.084;7.090;2023-03-01T10:07:50;101134.63;;;5.29;90.65
37764;BME280;23602;51.084;7.090;2023-03-01T10:10:28;101124.38;;;5.06;74.38
37764;BME280;23602;51.084;7.090;2023-03-01T10:12:54;101122.06;;;5.21;67.25
37764;BME280;23602;51.084;7.090;2023-03-01T10:15:22;101116.94;;;5.28;67.48
37764;BME280;23602;51.084;7.090;2023-03-01T10:17:55;101113.16;;;5.48;65.08
37764;BME280;23602;51.084;7.090;2023-03-01T10:20:25;101124.66;;;6.09;66.06
37764;BME280;23602;51.084;7.090;2023-03-01T10:22:51;101120.91;;;5.77;68.43
37764;BME280;23602;51.084;7.090;2023-03-01T10:28:37;101108.78;;;6.08;63.14
37764;BME280;23602;51.084;7.090;2023-03-01T10:30:55;101101.00;;;6.40;65.64
37764;BME280;23602;51.084;7.090;2023-03-01T10:33:26;101090.56;;;6.63;65.36
37764;BME280;23602;51.084;7.090;2023-03-01T10:35:52;101087.41;;;6.00;63.39
37764;BME280;23602;51.084;7.090;2023-03-01T10:38:18;101095.03;;;5.34;65.80
37764;BME280;23602;51.084;7.090;2023-03-01T10:40:51;101088.31;;;4.94;68.28
37764;BME280;23602;51.084;7.090;2023-03-01T10:43:18;101085.69;;;4.67;69.53
37764;BME280;23602;51.084;7.090;2023-03-01T10:45:44;101085.06;;;4.73;85.66
37764;BME280;23602;51.084;7.090;2023-03-01T10:48:13;101074.75;;;4.61;74.06
37764;BME280;23602;51.084;7.090;2023-03-01T10:50:40;101081.38;;;4.29;73.75
37764;BME280;23602;51.084;7.090;2023-03-01T10:53:08;101073.63;;;3.99;74.70
37764;BME280;23602;51.084;7.090;2023-03-01T10:55:44;101071.19;;;4.15;78.29
37764;BME280;23602;51.084;7.090;2023-03-01T10:58:20;101067.06;;;4.30;83.21
37764;BME280;23602;51.084;7.090;2023-03-01T11:00:51;101053.69;;;4.50;81.30
37764;BME280;23602;51.084;7.090;2023-03-01T11:03:22;101053.75;;;4.58;84.40
37764;BME280;23602;51.084;7.090;2023-03-01T11:05:58;101066.22;;;4.39;76.10
37764;BME280;23602;51.084;7.090;2023-03-01T11:08:29;101062.53;;;4.40;87.17
37764;BME280;23602;51.084;7.090;2023-03-01T11:11:03;101057.06;;;4.15;73.84
37764;BME280;23602;51.084;7.090;2023-03-01T11:13:29;101045.28;;;4.27;77.23
37764;BME280;23602;51.084;7.090;2023-03-01T11:15:58;101035.59;;;4.53;79.22
37764;BME280;23602;51.084;7.090;2023-03-01T11:18:24;101027.59;;;4.80;90.23
37764;BME280;23602;51.084;7.090;2023-03-01T11:20:51;101030.63;;;4.85;77.41
37764;BME280;23602;51.084;7.090;2023-03-01T11:23:18;101037.88;;;5.10;90.85
37764;BME280;23602;51.084;7.090;2023-03-01T11:25:48;101030.91;;;5.35;83.80
37764;BME280;23602;51.084;7.090;2023-03-01T11:28:17;101024.53;;;5.28;73.04
37764;BME280;23602;51.084;7.090;2023-03-01T11:33:18;101017.81;;;5.67;84.27
37764;BME280;23602;51.084;7.090;2023-03-01T11:38:29;101016.91;;;5.33;65.82
37764;BME280;23602;51.084;7.090;2023-03-01T11:41:06;101017.13;;;5.40;72.98
37764;BME280;23602;51.084;7.090;2023-03-01T11:43:37;101012.63;;;5.40;67.34
37764;BME280;23602;51.084;7.090;2023-03-01T11:46:12;101008.81;;;5.43;66.12
37764;BME280;23602;51.084;7.090;2023-03-01T11:48:47;101008.50;;;5.46;64.47
37764;BME280;23602;51.084;7.090;2023-03-01T11:51:21;101004.00;;;5.46;66.76
37764;BME280;23602;51.084;7.090;2023-03-01T11:56:29;100980.97;;;5.89;69.65
37764;BME280;23602;51.084;7.090;2023-03-01T11:59:02;100973.84;;;5.97;69.15
37764;BME280;23602;51.084;7.090;2023-03-01T12:07:00;100968.69;;;6.46;66.24
37764;BME280;23602;51.084;7.090;2023-03-01T12:09:36;100960.19;;;6.50;64.52
37764;BME280;23602;51.084;7.090;2023-03-01T12:19:45;100956.03;;;6.72;63.48
37764;BME280;23602;51.084;7.090;2023-03-01T12:25:19;100950.91;;;6.78;65.80
37764;BME280;23602;51.084;7.090;2023-03-01T12:30:33;100935.88;;;6.93;62.92
37764;BME280;23602;51.084;7.090;2023-03-01T12:33:06;100927.69;;;7.11;61.44
37764;BME280;23602;51.084;7.090;2023-03-01T12:49:35;100924.75;;;7.53;61.09
37764;BME280;23602;51.084;7.090;2023-03-01T12:54:58;100910.28;;;7.07;56.75
37764;BME280;23602;51.084;7.090;2023-03-01T12:57:30;100905.78;;;7.16;57.73
37764;BME280;23602;51.084;7.090;2023-03-01T13:00:52;100902.25;;;7.31;57.60
37764;BME280;23602;51.084;7.090;2023-03-01T13:05:21;100893.03;;;7.50;60.54
37764;BME280;23602;51.084;7.090;2023-03-01T13:07:52;100888.66;;;7.57;60.05
37764;BME280;23602;51.084;7.090;2023-03-01T13:17:53;100880.97;;;7.62;57.42
37764;BME280;23602;51.084;7.090;2023-03-01T13:20:20;100880.78;;;7.55;52.83
37764;BME280;23602;51.084;7.090;2023-03-01T13:23:03;100872.94;;;7.62;56.14
37764;BME280;23602;51.084;7.090;2023-03-01T13:25:28;100878.13;;;7.55;53.30
37764;BME280;23602;51.084;7.090;2023-03-01T13:30:41;100872.34;;;7.36;55.50
37764;BME280;23602;51.084;7.090;2023-03-01T13:33:49;100879.31;;;7.45;59.30
37764;BME280;23602;51.084;7.090;2023-03-01T13:35:56;100881.47;;;7.57;61.85
37764;BME280;23602;51.084;7.090;2023-03-01T13:41:12;100877.97;;;7.49;55.68
37764;BME280;23602;51.084;7.090;2023-03-01T13:43:38;100874.78;;;7.53;57.84
37764;BME280;23602;51.084;7.090;2023-03-01T13:48:57;100866.78;;;7.45;56.79
37764;BME280;23602;51.084;7.090;2023-03-01T13:51:26;100868.78;;;7.51;61.97
37764;BME280;23602;51.084;7.090;2023-03-01T13:53:54;100867.09;;;7.50;59.69
37764;BME280;23602;51.084;7.090;2023-03-01T13:58:49;100864.28;;;7.44;64.91
37764;BME280;23602;51.084;7.090;2023-03-01T14:01:23;100868.81;;;7.35;62.98
37764;BME280;23602;51.084;7.090;2023-03-01T14:03:49;100861.81;;;7.34;61.53
37764;BME280;23602;51.084;7.090;2023-03-01T14:06:24;100869.69;;;7.28;64.20
37764;BME280;23602;51.084;7.090;2023-03-01T14:08:51;100861.53;;;7.05;65.05
37764;BME280;23602;51.084;7.090;2023-03-01T14:13:52;100863.88;;;7.00;67.53
37764;BME280;23602;51.084;7.090;2023-03-01T14:16:25;100859.53;;;7.07;70.73
37764;BME280;23602;51.084;7.090;2023-03-01T14:18:57;100862.19;;;7.07;69.38
37764;BME280;23602;51.084;7.090;2023-03-01T14:21:25;100860.69;;;7.05;74.83
37764;BME280;23602;51.084;7.090;2023-03-01T14:23:51;100862.88;;;7.01;70.49